Nanuet, New York
Current Conditions -  °F | °C
As of 6:56 AM on Sunday 21 Dec 2014 (Local Time) from KHPN Reporting Station
Overcast Overcast  
Wind Chill: 22°   Ceiling: 1300
Heat Index: 30°   Visibility: 9mi
Dew Point: 24°   Wind: 8mph
Humidity: 79%   Direction: 320°NW
Pressure: 30.27"   Gusts: NA
Location:  41.1°N, 74.01°W
Report Text: KHPN 211156Z 32007KT 9SM OVC013 M01/M04 A3027 RMK AO2 SLP258 T10111044 11011 21017 53004
Loading
Personal Weather Stations






























Interactive Weather Map New forecast layout! Learn more

10-Day Weather Forecast

Advertisements
Track Severe Weather on mobile